Time;durP1;ratioP1;P1;durP2;ratioP2;P2;SDS_P1;SDS_P2;PMS_P1;PMS_P2;Temp;Humidity;BMP_temperature;BMP_pressure;BME280_temperature;BME280_humidity;BME280_pressure;Samples;Min_cycle;Max_cycle;Signal;HPM_P1;HPM_P2
2022/07/25 00:00:15;;;;;;;6.70;5.90;;;;;;;;;;5054574;28;20210;-64
2022/07/25 00:02:40;;;;;;;6.88;6.15;;;;;;;;;;5062895;28;20184;-64
2022/07/25 00:05:06;;;;;;;7.28;5.80;;;;;;;;;;5047478;28;20631;-64
2022/07/25 00:07:32;;;;;;;8.45;6.05;;;;;;;;;;5047753;28;20209;-64
2022/07/25 00:09:57;;;;;;;8.23;5.75;;;;;;;;;;5049127;28;20182;-64
2022/07/25 00:12:23;;;;;;;6.75;6.05;;;;;;;;;;5051984;28;20204;-64
2022/07/25 00:14:48;;;;;;;10.68;6.20;;;;;;;;;;5046793;28;20201;-64
2022/07/25 00:17:14;;;;;;;7.68;6.55;;;;;;;;;;5047983;28;20200;-64
2022/07/25 00:19:39;;;;;;;7.70;6.60;;;;;;;;;;5051529;28;20189;-64
2022/07/25 00:22:05;;;;;;;8.77;6.05;;;;;;;;;;5047716;28;20680;-64
2022/07/25 00:24:30;;;;;;;8.90;6.35;;;;;;;;;;5054986;28;20709;-64
2022/07/25 00:26:56;;;;;;;8.77;7.00;;;;;;;;;;5053876;28;20397;-64
2022/07/25 00:29:21;;;;;;;8.88;6.95;;;;;;;;;;5065215;28;20195;-64
2022/07/25 00:31:47;;;;;;;10.93;7.15;;;;;;;;;;5057585;28;20255;-64
2022/07/25 00:34:12;;;;;;;8.15;6.93;;;;;;;;;;5055620;28;20226;-64
2022/07/25 00:36:38;;;;;;;8.50;7.40;;;;;;;;;;5063617;28;20216;-64
2022/07/25 00:39:03;;;;;;;8.48;7.22;;;;;;;;;;5067837;28;20263;-64
2022/07/25 00:41:29;;;;;;;8.93;6.95;;;;;;;;;;5056431;28;20228;-64
2022/07/25 00:43:54;;;;;;;7.80;6.80;;;;;;;;;;5059621;28;20199;-64
2022/07/25 00:46:20;;;;;;;9.15;7.35;;;;;;;;;;5051690;28;20726;-64
2022/07/25 00:48:45;;;;;;;7.95;7.13;;;;;;;;;;5064866;28;20281;-64
2022/07/25 00:51:11;;;;;;;10.75;6.93;;;;;;;;;;5051461;28;20195;-64
2022/07/25 00:53:37;;;;;;;8.63;7.70;;;;;;;;;;5048261;28;20660;-64
2022/07/25 00:56:04;;;;;;;8.15;7.35;;;;;;;;;;5063457;28;20268;-64
2022/07/25 00:58:29;;;;;;;8.60;7.65;;;;;;;;;;5054528;28;20186;-65
2022/07/25 01:00:55;;;;;;;10.13;8.13;;;;;;;;;;5061491;28;20192;-64
2022/07/25 01:03:20;;;;;;;9.23;8.25;;;;;;;;;;5047081;28;20189;-64
2022/07/25 01:05:46;;;;;;;11.48;8.60;;;;;;;;;;5055079;28;20535;-65
2022/07/25 01:08:12;;;;;;;9.80;7.85;;;;;;;;;;5056993;28;20296;-64
2022/07/25 01:10:38;;;;;;;9.48;8.27;;;;;;;;;;5060761;28;20176;-64
2022/07/25 01:13:03;;;;;;;11.32;8.20;;;;;;;;;;5066784;28;20188;-64
2022/07/25 01:15:29;;;;;;;10.23;7.88;;;;;;;;;;5067483;28;20181;-65
2022/07/25 01:17:54;;;;;;;10.52;8.50;;;;;;;;;;5062476;28;20751;-65
2022/07/25 01:20:21;;;;;;;10.93;8.20;;;;;;;;;;5052996;28;20612;-64
2022/07/25 01:22:47;;;;;;;10.32;7.95;;;;;;;;;;5051268;28;20172;-64
2022/07/25 01:25:14;;;;;;;10.95;8.27;;;;;;;;;;5050857;28;20311;-64
2022/07/25 01:27:41;;;;;;;12.50;9.13;;;;;;;;;;5051591;28;20212;-64
2022/07/25 01:30:09;;;;;;;10.07;8.52;;;;;;;;;;5056114;28;20214;-65
2022/07/25 01:32:34;;;;;;;10.50;8.75;;;;;;;;;;5059810;28;20212;-64
2022/07/25 01:35:00;;;;;;;11.63;8.88;;;;;;;;;;5064048;28;20552;-64
2022/07/25 01:37:26;;;;;;;11.20;9.02;;;;;;;;;;5053837;28;20653;-64
2022/07/25 01:39:51;;;;;;;10.18;8.25;;;;;;;;;;5053163;28;20200;-64
2022/07/25 01:42:16;;;;;;;11.23;9.13;;;;;;;;;;5064662;28;20646;-64
2022/07/25 01:44:42;;;;;;;10.18;8.00;;;;;;;;;;5071167;28;20318;-64
2022/07/25 01:47:07;;;;;;;10.40;9.23;;;;;;;;;;5058552;28;20603;-64
2022/07/25 01:49:33;;;;;;;11.43;9.80;;;;;;;;;;5050357;28;20212;-64
2022/07/25 01:51:59;;;;;;;10.30;8.80;;;;;;;;;;5054223;28;20180;-64
2022/07/25 01:54:24;;;;;;;10.50;8.10;;;;;;;;;;5055420;28;20238;-64
2022/07/25 01:56:50;;;;;;;11.52;8.80;;;;;;;;;;5066147;28;20321;-64
2022/07/25 01:59:15;;;;;;;10.23;8.23;;;;;;;;;;5060567;28;20200;-64
2022/07/25 02:01:41;;;;;;;9.43;8.45;;;;;;;;;;5067078;28;20256;-64
2022/07/25 02:04:06;;;;;;;10.60;9.45;;;;;;;;;;5056047;28;20374;-64
2022/07/25 02:06:33;;;;;;;10.85;8.98;;;;;;;;;;5068418;28;20552;-65
2022/07/25 02:08:59;;;;;;;11.57;8.98;;;;;;;;;;5054236;28;20189;-65
2022/07/25 02:11:25;;;;;;;12.85;8.73;;;;;;;;;;5068039;28;20183;-64
2022/07/25 02:13:50;;;;;;;12.43;8.75;;;;;;;;;;5058997;28;20181;-64
2022/07/25 02:16:16;;;;;;;10.77;9.20;;;;;;;;;;5058888;28;20189;-65
2022/07/25 02:18:42;;;;;;;10.00;9.00;;;;;;;;;;5056023;28;20184;-64
2022/07/25 02:21:09;;;;;;;14.00;9.02;;;;;;;;;;5054087;28;20177;-64
2022/07/25 02:23:35;;;;;;;13.27;9.98;;;;;;;;;;5054674;28;20225;-64
2022/07/25 02:26:00;;;;;;;14.50;10.77;;;;;;;;;;5051825;28;20191;-64
2022/07/25 02:28:25;;;;;;;18.15;12.13;;;;;;;;;;5062663;28;20606;-64
2022/07/25 02:30:51;;;;;;;12.75;10.43;;;;;;;;;;5070216;28;20209;-64
2022/07/25 02:33:16;;;;;;;13.07;10.88;;;;;;;;;;5054445;28;20185;-65
2022/07/25 02:35:42;;;;;;;14.05;11.30;;;;;;;;;;5054732;28;20185;-65
2022/07/25 02:38:07;;;;;;;14.77;11.55;;;;;;;;;;5049541;28;20190;-65
2022/07/25 02:40:32;;;;;;;14.57;11.68;;;;;;;;;;5056384;28;20239;-65
2022/07/25 02:42:58;;;;;;;12.85;11.20;;;;;;;;;;5057336;28;20177;-64
2022/07/25 02:45:23;;;;;;;16.67;11.30;;;;;;;;;;5061215;28;20529;-64
2022/07/25 02:47:49;;;;;;;14.82;12.05;;;;;;;;;;5060980;28;20208;-64
2022/07/25 02:50:15;;;;;;;12.90;10.68;;;;;;;;;;5061057;28;20182;-64
2022/07/25 02:52:40;;;;;;;14.10;11.32;;;;;;;;;;5053207;28;20200;-64
2022/07/25 02:55:06;;;;;;;15.70;11.13;;;;;;;;;;5063383;28;20208;-64
2022/07/25 02:57:31;;;;;;;14.88;11.30;;;;;;;;;;5060317;28;20189;-64
2022/07/25 02:59:57;;;;;;;15.57;11.60;;;;;;;;;;5063009;28;20181;-64
2022/07/25 03:02:22;;;;;;;15.70;11.55;;;;;;;;;;5068358;28;20250;-64
2022/07/25 03:04:47;;;;;;;13.73;11.75;;;;;;;;;;5066141;28;20184;-64
2022/07/25 03:07:12;;;;;;;14.40;11.85;;;;;;;;;;5061343;28;20200;-64
2022/07/25 03:09:38;;;;;;;17.50;10.60;;;;;;;;;;5057495;28;20630;-64
2022/07/25 03:12:04;;;;;;;12.75;10.38;;;;;;;;;;5067758;28;20226;-64
2022/07/25 03:14:29;;;;;;;15.43;11.75;;;;;;;;;;5057305;28;20230;-64
2022/07/25 03:16:54;;;;;;;13.77;10.93;;;;;;;;;;5053012;28;20181;-64
2022/07/25 03:19:20;;;;;;;17.13;12.10;;;;;;;;;;5049513;28;20260;-64
2022/07/25 03:21:45;;;;;;;15.48;11.35;;;;;;;;;;5054299;28;20200;-64
2022/07/25 03:24:11;;;;;;;13.68;11.35;;;;;;;;;;5055013;28;20229;-64
2022/07/25 03:26:36;;;;;;;15.68;10.95;;;;;;;;;;5049867;28;20568;-64
2022/07/25 03:29:02;;;;;;;16.58;11.77;;;;;;;;;;5059868;28;20189;-64
2022/07/25 03:31:27;;;;;;;15.93;12.02;;;;;;;;;;5054490;28;20216;-64
2022/07/25 03:33:52;;;;;;;15.57;11.68;;;;;;;;;;5062532;28;20189;-64
2022/07/25 03:36:18;;;;;;;15.07;10.95;;;;;;;;;;5062362;28;20183;-64
2022/07/25 03:38:43;;;;;;;17.55;12.55;;;;;;;;;;5053263;28;20185;-64
2022/07/25 03:41:09;;;;;;;15.85;11.48;;;;;;;;;;5048882;28;20176;-64
2022/07/25 03:43:34;;;;;;;14.70;11.13;;;;;;;;;;5053516;28;20204;-65
2022/07/25 03:45:59;;;;;;;14.88;12.10;;;;;;;;;;5051880;28;20185;-65
2022/07/25 03:48:25;;;;;;;16.52;11.80;;;;;;;;;;5062095;28;20287;-65
2022/07/25 03:50:50;;;;;;;14.20;10.13;;;;;;;;;;5056778;28;20196;-65
2022/07/25 03:53:15;;;;;;;14.10;11.05;;;;;;;;;;5053085;28;20185;-65
2022/07/25 03:55:41;;;;;;;14.38;12.15;;;;;;;;;;5059111;28;20189;-64
2022/07/25 03:58:06;;;;;;;14.02;11.10;;;;;;;;;;5049369;28;20567;-65
2022/07/25 04:00:31;;;;;;;13.48;11.40;;;;;;;;;;5062752;28;20189;-65
2022/07/25 04:02:57;;;;;;;15.32;11.73;;;;;;;;;;5047765;28;20572;-64
2022/07/25 04:05:23;;;;;;;14.35;11.10;;;;;;;;;;5047984;28;20726;-64
2022/07/25 04:07:48;;;;;;;18.35;11.77;;;;;;;;;;5057399;28;20259;-65
2022/07/25 04:10:14;;;;;;;15.18;11.52;;;;;;;;;;5051755;28;20233;-64
2022/07/25 04:12:39;;;;;;;16.45;11.10;;;;;;;;;;5055022;28;20181;-64
2022/07/25 04:15:05;;;;;;;14.65;11.27;;;;;;;;;;5047788;28;20189;-64
2022/07/25 04:17:30;;;;;;;12.70;10.32;;;;;;;;;;5047595;28;20883;-64
2022/07/25 04:19:55;;;;;;;13.45;10.40;;;;;;;;;;5048894;28;20269;-65
2022/07/25 04:22:21;;;;;;;12.63;10.80;;;;;;;;;;5052504;28;20234;-65
2022/07/25 04:24:46;;;;;;;14.55;11.73;;;;;;;;;;5049618;28;20224;-65
2022/07/25 04:27:12;;;;;;;16.67;11.80;;;;;;;;;;5052073;28;20689;-65
2022/07/25 04:29:37;;;;;;;12.73;10.38;;;;;;;;;;5059848;28;20180;-65
2022/07/25 04:32:03;;;;;;;14.48;11.20;;;;;;;;;;5059513;28;20200;-65
2022/07/25 04:34:29;;;;;;;14.15;11.00;;;;;;;;;;5068032;28;20588;-65
2022/07/25 04:36:54;;;;;;;14.43;11.23;;;;;;;;;;5067634;28;20187;-64
2022/07/25 04:39:19;;;;;;;13.35;10.88;;;;;;;;;;5051776;28;20724;-64
2022/07/25 04:41:45;;;;;;;13.60;11.25;;;;;;;;;;5056848;28;20673;-64
2022/07/25 04:44:10;;;;;;;13.95;10.50;;;;;;;;;;5051797;28;20189;-63
2022/07/25 04:46:35;;;;;;;13.48;9.68;;;;;;;;;;5056962;28;20177;-64
2022/07/25 04:49:01;;;;;;;13.95;10.77;;;;;;;;;;5057507;28;20212;-64
2022/07/25 04:51:26;;;;;;;12.18;9.18;;;;;;;;;;5062056;28;20176;-64
2022/07/25 04:53:51;;;;;;;17.55;10.52;;;;;;;;;;5060328;28;20177;-64
2022/07/25 04:56:17;;;;;;;13.15;10.55;;;;;;;;;;5056334;28;20177;-65
2022/07/25 04:58:42;;;;;;;15.98;10.35;;;;;;;;;;5062388;28;20548;-64
2022/07/25 05:01:08;;;;;;;13.60;10.13;;;;;;;;;;5051716;28;20189;-64
2022/07/25 05:03:33;;;;;;;13.15;9.82;;;;;;;;;;5046057;28;20653;-64
2022/07/25 05:05:59;;;;;;;12.27;9.57;;;;;;;;;;5051126;28;20205;-65
2022/07/25 05:08:24;;;;;;;12.15;9.73;;;;;;;;;;5051876;28;20208;-64
2022/07/25 05:10:49;;;;;;;14.38;10.00;;;;;;;;;;5054938;28;20184;-65
2022/07/25 05:13:15;;;;;;;16.02;9.95;;;;;;;;;;5051180;28;20260;-64
2022/07/25 05:15:40;;;;;;;14.95;9.52;;;;;;;;;;5051418;28;20193;-64
2022/07/25 05:18:05;;;;;;;14.55;9.60;;;;;;;;;;5046340;28;20188;-64
2022/07/25 05:20:31;;;;;;;15.18;10.07;;;;;;;;;;5051770;28;20199;-64
2022/07/25 05:22:56;;;;;;;15.40;9.63;;;;;;;;;;5051867;28;20216;-64
2022/07/25 05:25:22;;;;;;;13.60;9.95;;;;;;;;;;5051933;28;20221;-63
2022/07/25 05:27:47;;;;;;;13.18;9.57;;;;;;;;;;5050035;28;20221;-65
2022/07/25 05:30:13;;;;;;;13.82;9.40;;;;;;;;;;5047388;28;20188;-65
2022/07/25 05:32:40;;;;;;;13.10;9.23;;;;;;;;;;5050739;28;20746;-64
2022/07/25 05:35:07;;;;;;;15.43;10.60;;;;;;;;;;5054315;28;20195;-64
2022/07/25 05:37:33;;;;;;;12.63;9.85;;;;;;;;;;5051746;28;20254;-64
2022/07/25 05:39:58;;;;;;;12.02;9.38;;;;;;;;;;5051715;28;20182;-65
2022/07/25 05:42:24;;;;;;;13.35;9.48;;;;;;;;;;5052367;28;20185;-64
2022/07/25 05:44:49;;;;;;;14.38;9.50;;;;;;;;;;5048883;28;20235;-64
2022/07/25 05:47:15;;;;;;;11.70;9.13;;;;;;;;;;5052057;28;20248;-64
2022/07/25 05:49:40;;;;;;;13.05;8.82;;;;;;;;;;5048639;28;20196;-64
2022/07/25 05:52:05;;;;;;;10.55;8.77;;;;;;;;;;5053592;28;20251;-65
2022/07/25 05:54:31;;;;;;;13.60;8.23;;;;;;;;;;5055461;28;20657;-65
2022/07/25 05:56:56;;;;;;;13.60;9.10;;;;;;;;;;5055880;28;20213;-65
2022/07/25 05:59:22;;;;;;;13.32;8.95;;;;;;;;;;5054226;28;20687;-66
2022/07/25 06:01:47;;;;;;;10.65;8.73;;;;;;;;;;5050477;28;20205;-65
2022/07/25 06:04:12;;;;;;;13.73;8.40;;;;;;;;;;5049586;28;20275;-64
2022/07/25 06:06:38;;;;;;;13.80;9.27;;;;;;;;;;5051752;28;20220;-64
2022/07/25 06:09:03;;;;;;;12.38;9.18;;;;;;;;;;5048443;28;20288;-64
2022/07/25 06:11:30;;;;;;;12.85;9.35;;;;;;;;;;5056277;28;20657;-64
2022/07/25 06:13:55;;;;;;;11.95;8.70;;;;;;;;;;5061911;28;20174;-64
2022/07/25 06:16:21;;;;;;;12.70;9.02;;;;;;;;;;5052269;28;20719;-64
2022/07/25 06:18:46;;;;;;;13.38;8.90;;;;;;;;;;5065925;28;20169;-64
2022/07/25 06:21:12;;;;;;;10.45;8.27;;;;;;;;;;5055832;28;20633;-64
2022/07/25 06:23:37;;;;;;;13.35;9.10;;;;;;;;;;5051933;28;20233;-63
2022/07/25 06:26:02;;;;;;;14.18;8.90;;;;;;;;;;5044504;28;20185;-64
2022/07/25 06:28:28;;;;;;;11.80;9.10;;;;;;;;;;5055142;28;20197;-63
2022/07/25 06:30:53;;;;;;;13.40;9.05;;;;;;;;;;5054083;28;20518;-64
2022/07/25 06:33:19;;;;;;;15.52;9.00;;;;;;;;;;5051179;28;20185;-64
2022/07/25 06:35:44;;;;;;;14.40;9.20;;;;;;;;;;5050057;28;20189;-65
2022/07/25 06:38:10;;;;;;;13.07;9.48;;;;;;;;;;5045855;28;20268;-64
2022/07/25 06:40:35;;;;;;;11.60;8.52;;;;;;;;;;5053923;28;20725;-66
2022/07/25 06:43:00;;;;;;;12.30;9.15;;;;;;;;;;5057401;28;20787;-63
2022/07/25 06:45:26;;;;;;;11.98;8.80;;;;;;;;;;5046051;28;20197;-63
2022/07/25 06:47:54;;;;;;;15.57;9.90;;;;;;;;;;5048826;28;20855;-63
2022/07/25 06:50:19;;;;;;;12.27;8.88;;;;;;;;;;5048455;28;20189;-63
2022/07/25 06:52:46;;;;;;;14.02;9.15;;;;;;;;;;5047867;28;20185;-63
2022/07/25 06:55:13;;;;;;;12.05;8.70;;;;;;;;;;5060999;28;20265;-63
2022/07/25 06:57:40;;;;;;;13.63;9.23;;;;;;;;;;5048599;28;20189;-63
2022/07/25 07:00:08;;;;;;;12.32;8.57;;;;;;;;;;5056746;28;20197;-63
2022/07/25 07:02:35;;;;;;;14.40;8.57;;;;;;;;;;5048230;28;20207;-64
2022/07/25 07:05:00;;;;;;;12.82;8.75;;;;;;;;;;5054543;28;20968;-64
2022/07/25 07:07:26;;;;;;;15.95;8.30;;;;;;;;;;5063388;28;20200;-63
2022/07/25 07:09:51;;;;;;;14.00;8.85;;;;;;;;;;5063103;28;20594;-63
2022/07/25 07:12:16;;;;;;;10.85;8.75;;;;;;;;;;5056673;28;20185;-63
2022/07/25 07:14:44;;;;;;;13.20;8.60;;;;;;;;;;5052184;28;20177;-63
2022/07/25 07:17:09;;;;;;;10.20;7.93;;;;;;;;;;5058015;28;20603;-63
2022/07/25 07:19:34;;;;;;;12.88;8.80;;;;;;;;;;5053701;28;20268;-63
2022/07/25 07:22:00;;;;;;;11.85;8.23;;;;;;;;;;5051161;28;20188;-63
2022/07/25 07:24:25;;;;;;;14.90;7.63;;;;;;;;;;5053539;28;20225;-63
2022/07/25 07:26:52;;;;;;;14.25;9.32;;;;;;;;;;5054093;28;20207;-67
2022/07/25 07:29:17;;;;;;;12.60;7.97;;;;;;;;;;5047899;28;20650;-66
2022/07/25 07:31:43;;;;;;;9.88;7.80;;;;;;;;;;5050690;28;20319;-63
2022/07/25 07:34:08;;;;;;;9.32;7.95;;;;;;;;;;5052450;28;20514;-63
2022/07/25 07:36:33;;;;;;;13.98;8.98;;;;;;;;;;5056796;28;20181;-63
2022/07/25 07:38:59;;;;;;;18.20;8.63;;;;;;;;;;5049911;28;20215;-64
2022/07/25 07:41:25;;;;;;;11.48;8.40;;;;;;;;;;5049795;28;20177;-64
2022/07/25 07:43:50;;;;;;;9.27;8.00;;;;;;;;;;5051344;28;20181;-64
2022/07/25 07:46:15;;;;;;;10.60;7.82;;;;;;;;;;5050741;28;20178;-64
2022/07/25 07:48:41;;;;;;;10.90;8.07;;;;;;;;;;5050591;28;20215;-65
2022/07/25 07:51:06;;;;;;;12.80;8.15;;;;;;;;;;5051005;28;20183;-65
2022/07/25 07:56:17;;;;;;;14.68;8.10;;;;;;;;;;5051986;28;20199;-63
2022/07/25 07:58:42;;;;;;;8.90;8.00;;;;;;;;;;5053515;28;20182;-64
2022/07/25 08:01:08;;;;;;;12.20;9.32;;;;;;;;;;5048283;28;20276;-64
2022/07/25 08:03:33;;;;;;;12.25;8.57;;;;;;;;;;5052242;28;20278;-64
2022/07/25 08:05:59;;;;;;;11.30;8.48;;;;;;;;;;5050206;28;20181;-64
2022/07/25 08:08:24;;;;;;;11.45;8.30;;;;;;;;;;5054909;28;20224;-64
2022/07/25 08:10:50;;;;;;;12.93;8.60;;;;;;;;;;5050425;28;20649;-64
2022/07/25 08:13:25;;;;;;;9.63;8.35;;;;;;;;;;5050266;28;20177;-65
2022/07/25 08:15:53;;;;;;;10.55;8.63;;;;;;;;;;5051957;28;20191;-64
2022/07/25 08:18:19;;;;;;;12.75;9.48;;;;;;;;;;5059822;28;20177;-64
2022/07/25 08:20:46;;;;;;;12.13;8.95;;;;;;;;;;5050561;28;20580;-64
2022/07/25 08:23:11;;;;;;;15.15;8.20;;;;;;;;;;5048429;28;20204;-65
2022/07/25 08:25:36;;;;;;;13.10;9.38;;;;;;;;;;5052718;28;20658;-64
2022/07/25 08:28:03;;;;;;;13.88;9.65;;;;;;;;;;5053636;28;20657;-64
2022/07/25 08:30:28;;;;;;;12.20;8.90;;;;;;;;;;5048820;28;20189;-64
2022/07/25 08:32:58;;;;;;;12.88;9.15;;;;;;;;;;5049875;28;20200;-64
2022/07/25 08:35:25;;;;;;;14.52;8.77;;;;;;;;;;5056163;28;20676;-64
2022/07/25 08:37:51;;;;;;;14.60;8.90;;;;;;;;;;5050019;28;20556;-64
2022/07/25 08:40:18;;;;;;;10.65;8.65;;;;;;;;;;5049658;28;20177;-64
2022/07/25 08:42:44;;;;;;;12.65;9.20;;;;;;;;;;5053202;28;20311;-65
2022/07/25 08:45:15;;;;;;;10.30;9.13;;;;;;;;;;5057135;28;20176;-65
2022/07/25 08:47:41;;;;;;;11.15;8.38;;;;;;;;;;5056641;28;20208;-65
2022/07/25 08:50:13;;;;;;;10.68;8.32;;;;;;;;;;5054430;28;20189;-65
2022/07/25 08:52:39;;;;;;;9.98;7.30;;;;;;;;;;5050391;28;20200;-65
2022/07/25 08:55:09;;;;;;;8.45;7.32;;;;;;;;;;5047361;28;20185;-66
2022/07/25 08:57:37;;;;;;;8.77;6.07;;;;;;;;;;5047112;28;20660;-66
2022/07/25 09:00:06;;;;;;;10.18;6.13;;;;;;;;;;5050938;28;20747;-66
2022/07/25 09:02:31;;;;;;;8.40;5.80;;;;;;;;;;5054923;28;20185;-66
2022/07/25 09:04:58;;;;;;;8.90;6.35;;;;;;;;;;5049311;28;20211;-66
2022/07/25 09:07:35;;;;;;;6.15;5.32;;;;;;;;;;5047198;28;20728;-66
2022/07/25 09:10:21;;;;;;;6.85;5.28;;;;;;;;;;5051212;28;20184;-66
2022/07/25 09:13:09;;;;;;;11.07;5.85;;;;;;;;;;5049140;28;20694;-66
2022/07/25 09:15:59;;;;;;;5.95;5.30;;;;;;;;;;5047799;28;20220;-66
2022/07/25 09:18:27;;;;;;;7.13;5.47;;;;;;;;;;5048920;28;20194;-66
2022/07/25 09:20:57;;;;;;;7.20;5.50;;;;;;;;;;5049657;28;20656;-65
2022/07/25 09:23:37;;;;;;;4.93;3.88;;;;;;;;;;5051710;28;20192;-65
2022/07/25 09:26:13;;;;;;;4.32;3.90;;;;;;;;;;5046803;28;20231;-65
2022/07/25 09:28:44;;;;;;;3.30;3.00;;;;;;;;;;5051024;28;20668;-65
2022/07/25 09:31:10;;;;;;;6.28;3.92;;;;;;;;;;5051809;28;20217;-65
2022/07/25 09:33:45;;;;;;;3.78;2.88;;;;;;;;;;5052939;28;20184;-65
2022/07/25 09:36:11;;;;;;;5.13;3.10;;;;;;;;;;5054047;28;20216;-66
2022/07/25 09:38:36;;;;;;;3.58;2.97;;;;;;;;;;5053316;28;20219;-66
2022/07/25 09:41:02;;;;;;;3.63;3.03;;;;;;;;;;5050313;28;20193;-65
2022/07/25 09:43:39;;;;;;;5.03;3.15;;;;;;;;;;5052278;28;20223;-66
2022/07/25 09:46:05;;;;;;;4.40;2.67;;;;;;;;;;5053325;28;20189;-65
2022/07/25 09:48:32;;;;;;;6.65;3.28;;;;;;;;;;5051763;28;20185;-65
2022/07/25 09:50:57;;;;;;;5.78;2.97;;;;;;;;;;5060459;28;20268;-66
2022/07/25 09:53:23;;;;;;;3.67;2.80;;;;;;;;;;5051551;28;20603;-65
2022/07/25 09:55:49;;;;;;;3.30;2.70;;;;;;;;;;5060152;28;20227;-65
2022/07/25 09:58:14;;;;;;;4.70;2.60;;;;;;;;;;5056668;28;20545;-65
2022/07/25 10:00:41;;;;;;;7.57;3.60;;;;;;;;;;5051261;28;20184;-66
2022/07/25 10:03:31;;;;;;;4.57;2.90;;;;;;;;;;5051907;28;20645;-64
2022/07/25 10:06:06;;;;;;;5.13;3.58;;;;;;;;;;5055143;28;20173;-65
2022/07/25 10:08:40;;;;;;;3.38;3.00;;;;;;;;;;5050940;28;20814;-65
2022/07/25 10:11:24;;;;;;;3.60;3.30;;;;;;;;;;5063541;28;20231;-69
2022/07/25 10:13:51;;;;;;;6.00;3.20;;;;;;;;;;5054614;28;20181;-65
2022/07/25 10:16:19;;;;;;;4.15;2.90;;;;;;;;;;5052096;28;20181;-65
2022/07/25 10:18:56;;;;;;;5.38;2.63;;;;;;;;;;5051627;28;20169;-66
2022/07/25 10:21:23;;;;;;;4.50;2.20;;;;;;;;;;5049783;28;20192;-65
2022/07/25 10:24:17;;;;;;;2.53;2.33;;;;;;;;;;5059309;28;20743;-66
2022/07/25 10:26:51;;;;;;;4.18;2.08;;;;;;;;;;5059650;28;20232;-66
2022/07/25 10:29:16;;;;;;;5.00;2.20;;;;;;;;;;5060874;28;20213;-66
2022/07/25 10:31:46;;;;;;;2.40;2.20;;;;;;;;;;5048685;28;20275;-67
2022/07/25 10:34:14;;;;;;;3.55;2.10;;;;;;;;;;5054873;28;20478;-68
2022/07/25 10:36:46;;;;;;;2.85;2.28;;;;;;;;;;5054319;28;20595;-66
2022/07/25 10:39:16;;;;;;;2.20;2.00;;;;;;;;;;5055817;28;20185;-65
2022/07/25 10:41:50;;;;;;;4.13;2.55;;;;;;;;;;5057107;28;20192;-66
2022/07/25 10:44:15;;;;;;;2.40;2.20;;;;;;;;;;5053618;28;20185;-66
2022/07/25 10:46:45;;;;;;;6.25;2.70;;;;;;;;;;5060049;28;20195;-65
2022/07/25 10:49:20;;;;;;;3.53;2.78;;;;;;;;;;5057868;28;20258;-66
2022/07/25 10:51:57;;;;;;;2.30;2.10;;;;;;;;;;5057917;28;20251;-65
2022/07/25 10:54:23;;;;;;;3.33;2.63;;;;;;;;;;5056526;28;20173;-65
2022/07/25 10:56:56;;;;;;;3.08;2.60;;;;;;;;;;5055061;28;20181;-66
2022/07/25 10:59:40;;;;;;;3.88;2.92;;;;;;;;;;5054543;28;20564;-65
2022/07/25 11:02:08;;;;;;;4.32;2.65;;;;;;;;;;5057599;28;20247;-66
2022/07/25 11:04:36;;;;;;;5.38;2.83;;;;;;;;;;5053936;28;20181;-67
2022/07/25 11:07:09;;;;;;;5.68;2.78;;;;;;;;;;5048254;28;20260;-65
2022/07/25 11:09:35;;;;;;;4.53;2.65;;;;;;;;;;5051755;28;20247;-66
2022/07/25 11:12:00;;;;;;;2.65;2.35;;;;;;;;;;5049882;28;20712;-67
2022/07/25 11:14:36;;;;;;;2.42;2.25;;;;;;;;;;5051841;28;20219;-64
2022/07/25 11:17:21;;;;;;;3.22;2.20;;;;;;;;;;5048976;28;20446;-64
2022/07/25 11:19:56;;;;;;;3.08;1.95;;;;;;;;;;5049542;28;20660;-65
2022/07/25 11:22:23;;;;;;;3.42;1.95;;;;;;;;;;5053911;28;20184;-68
2022/07/25 11:24:48;;;;;;;2.10;2.00;;;;;;;;;;5051782;28;20683;-66
2022/07/25 11:27:31;;;;;;;3.33;2.50;;;;;;;;;;5048213;28;22067;-65
2022/07/25 11:30:10;;;;;;;3.75;2.53;;;;;;;;;;5051286;28;20775;-67
2022/07/25 11:32:50;;;;;;;4.50;2.05;;;;;;;;;;5056147;28;20211;-66
2022/07/25 11:35:20;;;;;;;3.45;2.03;;;;;;;;;;5054216;28;20572;-65
2022/07/25 11:37:48;;;;;;;1.52;1.42;;;;;;;;;;5057330;28;20212;-64
2022/07/25 11:40:15;;;;;;;6.32;1.92;;;;;;;;;;5059938;28;20243;-65
2022/07/25 11:42:49;;;;;;;2.13;1.25;;;;;;;;;;5049670;28;20421;-68
2022/07/25 11:45:38;;;;;;;2.40;1.88;;;;;;;;;;5065117;28;20180;-65
2022/07/25 11:48:12;;;;;;;3.50;1.55;;;;;;;;;;5060956;28;20200;-65
2022/07/25 11:50:40;;;;;;;2.55;1.60;;;;;;;;;;5048131;28;20593;-65
2022/07/25 11:53:13;;;;;;;1.80;1.50;;;;;;;;;;5051549;28;20184;-65
2022/07/25 11:55:41;;;;;;;3.28;1.60;;;;;;;;;;5056232;28;20188;-64
2022/07/25 11:58:07;;;;;;;2.35;1.55;;;;;;;;;;5053754;28;20181;-64
2022/07/25 12:00:41;;;;;;;2.75;1.38;;;;;;;;;;5061580;28;20189;-65
2022/07/25 12:03:08;;;;;;;1.55;1.45;;;;;;;;;;5046785;28;20185;-65
2022/07/25 12:05:34;;;;;;;2.28;1.60;;;;;;;;;;5046738;28;20177;-65
2022/07/25 12:08:09;;;;;;;2.55;2.28;;;;;;;;;;5051532;28;20201;-65
2022/07/25 12:10:35;;;;;;;3.47;1.98;;;;;;;;;;5055373;28;20564;-65
2022/07/25 12:13:03;;;;;;;3.83;1.90;;;;;;;;;;5059372;28;20669;-67
2022/07/25 12:15:35;;;;;;;4.63;2.40;;;;;;;;;;5062987;28;20181;-66
2022/07/25 12:18:01;;;;;;;2.35;1.40;;;;;;;;;;5048193;28;20231;-66
2022/07/25 12:20:32;;;;;;;1.55;1.40;;;;;;;;;;5048459;28;20188;-67
2022/07/25 12:23:00;;;;;;;5.25;1.50;;;;;;;;;;5051191;28;20187;-66
2022/07/25 12:25:27;;;;;;;5.00;1.98;;;;;;;;;;5058009;28;20225;-66
2022/07/25 12:27:53;;;;;;;6.47;1.80;;;;;;;;;;5064036;28;20235;-66
2022/07/25 12:30:18;;;;;;;3.63;1.45;;;;;;;;;;5060982;28;20187;-66
2022/07/25 12:32:44;;;;;;;3.13;1.80;;;;;;;;;;5061157;28;20205;-67
2022/07/25 12:35:11;;;;;;;3.75;1.83;;;;;;;;;;5067809;28;20216;-66
2022/07/25 12:37:38;;;;;;;1.80;1.67;;;;;;;;;;5059368;28;20551;-67
2022/07/25 12:40:04;;;;;;;6.60;1.67;;;;;;;;;;5050905;28;20640;-66
2022/07/25 12:42:30;;;;;;;2.28;1.77;;;;;;;;;;5058496;28;20189;-66
2022/07/25 12:44:56;;;;;;;6.05;1.83;;;;;;;;;;5051830;28;20181;-67
2022/07/25 12:47:22;;;;;;;4.80;2.03;;;;;;;;;;5067451;28;20240;-70
2022/07/25 12:49:48;;;;;;;3.58;1.80;;;;;;;;;;5068553;28;20180;-65
2022/07/25 12:52:13;;;;;;;4.80;2.00;;;;;;;;;;5051673;28;20653;-66
2022/07/25 12:54:38;;;;;;;6.82;2.63;;;;;;;;;;5062164;28;20188;-66
2022/07/25 12:57:04;;;;;;;3.10;1.88;;;;;;;;;;5055548;28;20632;-67
2022/07/25 12:59:29;;;;;;;4.97;2.13;;;;;;;;;;5055071;28;20185;-67
2022/07/25 13:01:54;;;;;;;4.50;1.98;;;;;;;;;;5052406;28;20238;-66
2022/07/25 13:04:20;;;;;;;3.25;1.90;;;;;;;;;;5052477;28;20224;-64
2022/07/25 13:06:45;;;;;;;5.75;2.38;;;;;;;;;;5049342;28;20180;-64
2022/07/25 13:09:11;;;;;;;5.70;1.90;;;;;;;;;;5051945;28;20483;-67
2022/07/25 13:11:36;;;;;;;4.95;2.10;;;;;;;;;;5052479;28;20201;-65
2022/07/25 13:14:02;;;;;;;5.38;1.95;;;;;;;;;;5051309;28;20644;-65
2022/07/25 13:16:27;;;;;;;5.47;1.77;;;;;;;;;;5048283;28;20551;-66
2022/07/25 13:18:52;;;;;;;4.53;2.20;;;;;;;;;;5060086;28;20229;-65
2022/07/25 13:21:19;;;;;;;6.30;2.20;;;;;;;;;;5063121;28;20276;-65
2022/07/25 13:23:45;;;;;;;6.30;2.33;;;;;;;;;;5054000;28;20231;-65
2022/07/25 13:26:10;;;;;;;6.13;2.00;;;;;;;;;;5051885;28;20669;-64
2022/07/25 13:28:35;;;;;;;4.70;1.88;;;;;;;;;;5059153;28;20193;-64
2022/07/25 13:31:01;;;;;;;4.35;1.90;;;;;;;;;;5053351;28;20205;-66
2022/07/25 13:33:27;;;;;;;6.38;1.80;;;;;;;;;;5053756;28;20188;-65
2022/07/25 13:35:53;;;;;;;6.38;1.70;;;;;;;;;;5057074;28;20177;-64
2022/07/25 13:38:18;;;;;;;4.03;1.90;;;;;;;;;;5060728;28;20188;-64
2022/07/25 13:40:43;;;;;;;4.43;1.63;;;;;;;;;;5055193;28;20234;-65
2022/07/25 13:43:11;;;;;;;5.15;1.80;;;;;;;;;;5055319;28;20265;-66
2022/07/25 13:45:37;;;;;;;5.90;1.70;;;;;;;;;;5054424;28;20177;-65
2022/07/25 13:48:03;;;;;;;5.28;1.90;;;;;;;;;;5051152;28;20209;-66
2022/07/25 13:50:29;;;;;;;8.70;2.03;;;;;;;;;;5055522;28;20185;-65
2022/07/25 13:52:56;;;;;;;7.05;2.00;;;;;;;;;;5053229;28;20597;-65
2022/07/25 13:55:22;;;;;;;4.88;2.17;;;;;;;;;;5055630;28;20185;-64
2022/07/25 13:57:47;;;;;;;4.18;1.90;;;;;;;;;;5054930;28;20480;-64
2022/07/25 14:00:13;;;;;;;4.47;2.15;;;;;;;;;;5057991;28;20307;-68
2022/07/25 14:02:38;;;;;;;6.32;2.33;;;;;;;;;;5061069;28;20188;-64
2022/07/25 14:05:04;;;;;;;8.35;2.15;;;;;;;;;;5056339;28;20192;-65
2022/07/25 14:07:30;;;;;;;10.73;2.83;;;;;;;;;;5060676;28;20728;-64
2022/07/25 14:09:56;;;;;;;7.28;2.83;;;;;;;;;;5051409;28;20269;-65
2022/07/25 14:12:21;;;;;;;9.40;3.17;;;;;;;;;;5063430;28;20173;-69
2022/07/25 14:14:46;;;;;;;6.95;3.03;;;;;;;;;;5063498;28;20281;-67
2022/07/25 14:17:12;;;;;;;4.68;3.03;;;;;;;;;;5050377;28;20642;-67
2022/07/25 14:19:37;;;;;;;6.25;2.80;;;;;;;;;;5056248;28;20183;-65
2022/07/25 14:22:02;;;;;;;8.82;2.90;;;;;;;;;;5051607;28;20276;-65
2022/07/25 14:24:28;;;;;;;7.00;2.70;;;;;;;;;;5057448;28;20229;-65
2022/07/25 14:26:53;;;;;;;8.05;2.70;;;;;;;;;;5052406;28;20185;-65
2022/07/25 14:29:19;;;;;;;8.63;3.08;;;;;;;;;;5067390;28;20627;-66
2022/07/25 14:31:45;;;;;;;8.43;2.60;;;;;;;;;;5060733;28;20242;-70
2022/07/25 14:34:10;;;;;;;10.07;3.03;;;;;;;;;;5062478;28;20185;-70